Time;durP1;ratioP1;P1;durP2;ratioP2;P2;SDS_P1;SDS_P2;PMS_P1;PMS_P2;Temp;Humidity;BMP_temperature;BMP_pressure;BME280_temperature;BME280_humidity;BME280_pressure;Samples;Min_cycle;Max_cycle;Signal;HPM_P1;HPM_P2
2021/09/28 00:01:55;;;;;;;14.15;7.97;;;24.00;99.90;;;;;;5074493;28;20084;-59
2021/09/28 00:04:23;;;;;;;11.02;7.45;;;24.00;99.90;;;;;;5057984;28;20051;-49
2021/09/28 00:06:51;;;;;;;11.70;8.73;;;24.00;99.90;;;;;;5076365;28;20045;-51
2021/09/28 00:09:21;;;;;;;13.18;7.43;;;23.90;99.90;;;;;;5075813;28;20064;-50
2021/09/28 00:11:51;;;;;;;14.38;7.47;;;24.00;99.90;;;;;;5074405;28;20055;-48
2021/09/28 00:14:19;;;;;;;16.13;7.53;;;24.00;99.90;;;;;;5041530;28;20237;-50
2021/09/28 00:16:47;;;;;;;12.65;8.25;;;24.10;99.90;;;;;;5057951;28;20135;-50
2021/09/28 00:19:16;;;;;;;11.52;7.68;;;24.10;99.90;;;;;;5074134;28;20098;-49
2021/09/28 00:21:44;;;;;;;12.43;8.00;;;24.10;99.90;;;;;;5074160;28;20486;-50
2021/09/28 00:24:12;;;;;;;15.02;8.27;;;24.10;99.90;;;;;;5074158;28;20044;-51
2021/09/28 00:26:39;;;;;;;12.38;7.40;;;24.10;99.90;;;;;;5074117;28;20491;-51
2021/09/28 00:29:07;;;;;;;10.10;7.78;;;24.10;99.90;;;;;;5041062;28;20494;-52
2021/09/28 00:31:34;;;;;;;13.55;7.50;;;24.10;99.90;;;;;;5072836;28;20136;-60
2021/09/28 00:34:02;;;;;;;12.80;9.25;;;24.10;99.90;;;;;;5072611;28;20044;-52
2021/09/28 00:36:30;;;;;;;13.48;7.55;;;24.10;99.90;;;;;;5074075;28;20533;-53
2021/09/28 00:38:57;;;;;;;20.15;8.57;;;24.00;99.90;;;;;;5072612;28;20556;-51
2021/09/28 00:41:25;;;;;;;18.20;8.20;;;24.00;99.90;;;;;;5072637;28;20057;-50
2021/09/28 00:43:54;;;;;;;13.30;8.27;;;24.00;99.90;;;;;;5071965;28;20160;-52
2021/09/28 00:46:23;;;;;;;8.73;6.63;;;24.00;99.90;;;;;;5069123;28;20567;-52
2021/09/28 00:48:52;;;;;;;15.30;8.15;;;24.00;99.90;;;;;;5065042;28;20037;-50
2021/09/28 00:51:21;;;;;;;11.40;7.60;;;24.00;99.90;;;;;;5072291;28;20045;-49
2021/09/28 00:53:51;;;;;;;11.13;7.78;;;24.00;99.90;;;;;;5055790;28;20136;-49
2021/09/28 00:56:20;;;;;;;13.27;8.13;;;24.00;99.90;;;;;;5072506;28;20037;-48
2021/09/28 00:58:49;;;;;;;11.95;7.85;;;23.90;99.90;;;;;;5055733;28;20491;-47
2021/09/28 01:01:17;;;;;;;13.48;8.15;;;23.90;99.90;;;;;;5055883;28;20053;-49
2021/09/28 01:03:45;;;;;;;10.77;7.38;;;24.00;99.90;;;;;;5073593;28;20052;-48
2021/09/28 01:06:13;;;;;;;10.95;7.22;;;24.00;99.90;;;;;;5072225;28;20060;-50
2021/09/28 01:08:40;;;;;;;11.48;7.30;;;23.90;99.90;;;;;;5073069;28;20509;-49
2021/09/28 01:11:08;;;;;;;13.90;8.30;;;23.90;99.90;;;;;;5055882;28;20044;-52
2021/09/28 01:13:36;;;;;;;11.40;6.85;;;23.80;99.90;;;;;;5055461;28;20040;-50
2021/09/28 01:16:05;;;;;;;10.88;7.85;;;23.80;99.90;;;;;;5071891;28;20429;-50
2021/09/28 01:18:35;;;;;;;19.48;7.45;;;23.80;99.90;;;;;;5055261;28;20416;-51
2021/09/28 01:21:04;;;;;;;12.23;7.82;;;23.80;99.90;;;;;;5055281;28;20093;-50
2021/09/28 01:23:32;;;;;;;10.32;6.90;;;23.80;99.90;;;;;;5055219;28;20076;-52
2021/09/28 01:26:00;;;;;;;9.63;6.88;;;23.70;99.90;;;;;;5072840;28;20048;-49
2021/09/28 01:28:28;;;;;;;11.23;7.10;;;23.70;99.90;;;;;;5077418;28;20126;-51
2021/09/28 01:30:58;;;;;;;10.50;7.78;;;23.70;99.90;;;;;;5082390;28;20074;-59
2021/09/28 01:33:25;;;;;;;10.52;8.57;;;23.70;99.90;;;;;;5074913;28;20081;-52
2021/09/28 01:35:53;;;;;;;18.48;8.15;;;23.70;99.90;;;;;;5091611;28;20047;-48
2021/09/28 01:38:21;;;;;;;14.43;8.57;;;23.70;99.90;;;;;;5075196;28;20054;-50
2021/09/28 01:40:48;;;;;;;11.95;7.13;;;23.70;99.90;;;;;;5092820;28;20032;-49
2021/09/28 01:43:16;;;;;;;14.35;8.10;;;23.70;99.90;;;;;;5091537;28;20075;-49
2021/09/28 01:45:44;;;;;;;12.45;7.95;;;23.70;99.90;;;;;;5090870;28;20044;-47
2021/09/28 01:48:11;;;;;;;14.15;9.02;;;23.70;99.90;;;;;;5091548;28;20048;-53
2021/09/28 01:50:39;;;;;;;12.48;7.40;;;23.70;99.90;;;;;;5091441;28;20036;-48
2021/09/28 01:53:07;;;;;;;10.02;7.50;;;23.70;99.90;;;;;;5091340;28;20040;-51
2021/09/28 01:55:34;;;;;;;13.52;7.47;;;23.70;99.90;;;;;;5092453;28;20043;-49
2021/09/28 01:58:02;;;;;;;12.35;7.65;;;23.70;99.90;;;;;;5092837;28;20193;-48
2021/09/28 02:00:29;;;;;;;14.68;7.70;;;23.70;99.90;;;;;;5091084;28;20052;-49
2021/09/28 02:03:00;;;;;;;13.55;8.27;;;23.70;99.90;;;;;;5091275;28;20094;-48
2021/09/28 02:05:27;;;;;;;12.32;7.68;;;23.70;99.90;;;;;;5091331;28;20047;-49
2021/09/28 02:07:55;;;;;;;15.40;8.27;;;23.80;99.90;;;;;;5092182;28;20435;-49
2021/09/28 02:10:22;;;;;;;13.30;8.20;;;23.70;99.90;;;;;;5090827;28;20047;-48
2021/09/28 02:12:50;;;;;;;12.13;8.13;;;23.80;99.90;;;;;;5091224;28;20513;-48
2021/09/28 02:15:18;;;;;;;14.93;7.68;;;23.70;99.90;;;;;;5090817;28;20109;-47
2021/09/28 02:17:45;;;;;;;13.27;7.63;;;23.70;99.90;;;;;;5091890;28;20051;-48
2021/09/28 02:20:13;;;;;;;11.05;7.50;;;23.70;99.90;;;;;;5074247;28;20044;-47
2021/09/28 02:22:41;;;;;;;13.13;7.03;;;23.70;99.90;;;;;;5091113;28;20118;-49
2021/09/28 02:25:09;;;;;;;16.23;8.40;;;23.70;99.90;;;;;;5090859;28;20097;-49
2021/09/28 02:27:37;;;;;;;16.55;8.00;;;23.70;99.90;;;;;;5091851;28;20055;-47
2021/09/28 02:30:05;;;;;;;16.30;7.90;;;23.60;99.90;;;;;;5091802;28;20059;-52
2021/09/28 02:32:33;;;;;;;8.63;6.65;;;23.60;99.90;;;;;;5090919;28;20052;-53
2021/09/28 02:35:01;;;;;;;15.23;7.25;;;23.60;99.90;;;;;;5091027;28;20052;-51
2021/09/28 02:37:29;;;;;;;12.38;7.75;;;23.60;99.90;;;;;;5073942;28;20044;-52
2021/09/28 02:39:57;;;;;;;12.98;7.68;;;23.60;99.90;;;;;;5092063;28;20036;-52
2021/09/28 02:42:24;;;;;;;14.20;8.77;;;23.60;99.90;;;;;;5090843;28;20430;-52
2021/09/28 02:44:55;;;;;;;18.73;8.15;;;23.60;99.90;;;;;;5090434;28;20130;-51
2021/09/28 02:47:24;;;;;;;16.02;8.35;;;23.50;99.90;;;;;;5090690;28;20044;-51
2021/09/28 02:49:52;;;;;;;14.52;7.28;;;23.50;99.90;;;;;;5090470;28;20052;-56
2021/09/28 02:52:21;;;;;;;13.32;7.55;;;23.50;99.90;;;;;;5057335;28;20107;-51
2021/09/28 02:54:49;;;;;;;15.05;7.32;;;23.50;99.90;;;;;;5091935;28;20363;-50
2021/09/28 02:57:16;;;;;;;16.15;7.60;;;23.50;99.90;;;;;;5090120;28;20048;-51
2021/09/28 02:59:44;;;;;;;15.43;7.20;;;23.50;99.90;;;;;;5090168;28;20047;-51
2021/09/28 03:02:12;;;;;;;13.95;7.90;;;23.40;99.90;;;;;;5090457;28;20097;-52
2021/09/28 03:04:39;;;;;;;15.45;8.15;;;23.40;99.90;;;;;;5090595;28;20044;-49
2021/09/28 03:07:07;;;;;;;12.98;7.25;;;23.40;99.90;;;;;;5090540;28;20036;-49
2021/09/28 03:09:35;;;;;;;13.65;8.45;;;23.40;99.90;;;;;;5090135;28;20115;-53
2021/09/28 03:12:04;;;;;;;19.17;8.10;;;23.40;99.90;;;;;;5092676;28;20043;-52
2021/09/28 03:14:31;;;;;;;12.13;8.25;;;23.40;99.90;;;;;;5091844;28;20524;-51
2021/09/28 03:16:59;;;;;;;13.18;7.13;;;23.40;99.90;;;;;;5093126;28;20051;-48
2021/09/28 03:19:26;;;;;;;14.13;7.90;;;23.40;99.90;;;;;;5091639;28;20040;-49
2021/09/28 03:21:54;;;;;;;12.40;6.53;;;23.40;99.90;;;;;;5091684;28;20131;-50
2021/09/28 03:24:22;;;;;;;12.00;7.45;;;23.40;99.90;;;;;;5092913;28;20040;-51
2021/09/28 03:26:49;;;;;;;12.57;6.75;;;23.40;99.90;;;;;;5092561;28;20056;-52
2021/09/28 03:29:17;;;;;;;16.33;8.10;;;23.40;99.90;;;;;;5074924;28;20075;-53
2021/09/28 03:31:45;;;;;;;21.98;8.07;;;23.40;99.90;;;;;;5091572;28;20509;-52
2021/09/28 03:34:12;;;;;;;15.00;9.02;;;23.30;99.90;;;;;;5091165;28;20047;-47
2021/09/28 03:36:40;;;;;;;12.13;7.18;;;23.30;99.90;;;;;;5091457;28;20040;-50
2021/09/28 03:39:07;;;;;;;16.60;8.60;;;23.30;99.90;;;;;;5092399;28;20044;-56
2021/09/28 03:41:35;;;;;;;10.60;8.00;;;23.30;99.90;;;;;;5091144;28;20405;-52
2021/09/28 03:44:03;;;;;;;16.45;8.90;;;23.30;99.90;;;;;;5091247;28;20454;-50
2021/09/28 03:46:31;;;;;;;13.95;7.43;;;23.30;99.90;;;;;;5074666;28;20062;-52
2021/09/28 03:48:58;;;;;;;14.88;8.35;;;23.30;99.90;;;;;;5092500;28;20051;-48
2021/09/28 03:51:26;;;;;;;14.68;7.47;;;23.30;99.90;;;;;;5092405;28;20051;-53
2021/09/28 03:53:54;;;;;;;12.55;7.05;;;23.30;99.90;;;;;;5091108;28;20059;-50
2021/09/28 03:56:22;;;;;;;16.25;8.07;;;23.30;99.90;;;;;;5091220;28;20084;-53
2021/09/28 03:58:49;;;;;;;14.60;7.05;;;23.30;99.90;;;;;;5074121;28;20558;-48
2021/09/28 04:01:19;;;;;;;15.05;8.45;;;23.30;99.90;;;;;;5091148;28;20044;-50
2021/09/28 04:03:46;;;;;;;21.05;8.48;;;23.30;99.90;;;;;;5090962;28;20039;-51
2021/09/28 04:06:14;;;;;;;19.38;7.22;;;23.30;99.90;;;;;;5077914;28;20046;-50
2021/09/28 04:08:42;;;;;;;13.93;6.35;;;23.30;99.90;;;;;;5087719;28;20047;-51
2021/09/28 04:11:09;;;;;;;13.32;7.30;;;23.30;99.90;;;;;;5078379;28;20044;-50
2021/09/28 04:13:40;;;;;;;14.68;7.57;;;23.30;99.90;;;;;;5065670;28;20451;-50
2021/09/28 04:16:08;;;;;;;13.35;6.65;;;23.30;99.90;;;;;;5075328;28;20051;-50
2021/09/28 04:18:35;;;;;;;11.80;7.20;;;23.30;99.90;;;;;;5080832;28;20118;-48
2021/09/28 04:21:03;;;;;;;13.95;6.80;;;23.30;99.90;;;;;;5074200;28;20049;-52
2021/09/28 04:23:31;;;;;;;14.50;6.90;;;23.30;99.90;;;;;;5058512;28;20063;-48
2021/09/28 04:25:59;;;;;;;13.70;6.45;;;23.30;99.90;;;;;;5093077;28;20044;-48
2021/09/28 04:28:26;;;;;;;11.75;6.80;;;23.30;99.90;;;;;;5078243;28;20066;-52
2021/09/28 04:30:54;;;;;;;12.70;6.45;;;23.30;99.90;;;;;;5094498;28;20478;-48
2021/09/28 04:33:22;;;;;;;13.50;7.20;;;23.30;99.90;;;;;;5071250;28;20064;-51
2021/09/28 04:35:49;;;;;;;15.15;7.05;;;23.30;99.90;;;;;;5060077;28;20043;-49
2021/09/28 04:38:17;;;;;;;14.70;7.15;;;23.30;99.90;;;;;;5065718;28;20453;-52
2021/09/28 04:40:44;;;;;;;9.50;5.50;;;23.30;99.90;;;;;;5086131;28;20047;-48
2021/09/28 04:43:12;;;;;;;13.82;7.97;;;23.30;99.90;;;;;;5087475;28;20055;-49
2021/09/28 04:45:40;;;;;;;12.88;6.30;;;23.30;99.90;;;;;;5089329;28;20076;-51
2021/09/28 04:48:07;;;;;;;10.90;5.65;;;23.30;99.90;;;;;;5065437;28;20040;-52
2021/09/28 04:50:36;;;;;;;15.45;6.85;;;23.30;99.90;;;;;;5079066;28;20087;-52
2021/09/28 04:53:03;;;;;;;15.85;7.15;;;23.40;99.90;;;;;;5084512;28;20044;-51
2021/09/28 04:55:31;;;;;;;12.10;6.38;;;23.40;99.90;;;;;;5073973;28;20032;-48
2021/09/28 04:57:59;;;;;;;12.25;6.03;;;23.40;99.90;;;;;;5074065;28;20037;-50
2021/09/28 05:00:26;;;;;;;12.93;7.45;;;23.40;99.90;;;;;;5063830;28;20063;-49
2021/09/28 05:02:54;;;;;;;15.80;6.85;;;23.40;99.90;;;;;;5093498;28;20052;-51
2021/09/28 05:05:21;;;;;;;9.88;6.15;;;23.50;99.90;;;;;;5093861;28;20147;-49
2021/09/28 05:07:49;;;;;;;16.13;10.52;;;23.50;99.90;;;;;;5093737;28;20090;-52
2021/09/28 05:10:17;;;;;;;13.57;7.53;;;23.50;99.90;;;;;;5093794;28;20079;-50
2021/09/28 05:12:45;;;;;;;11.18;7.63;;;23.50;99.90;;;;;;5093769;28;20127;-48
2021/09/28 05:15:12;;;;;;;12.43;6.78;;;23.50;99.90;;;;;;5095353;28;20044;-51
2021/09/28 05:17:40;;;;;;;10.95;5.57;;;23.60;99.90;;;;;;5093023;28;20044;-50
2021/09/28 05:20:08;;;;;;;9.32;5.63;;;23.60;99.90;;;;;;5085525;28;20044;-55
2021/09/28 05:22:36;;;;;;;9.30;5.90;;;23.60;99.90;;;;;;5075549;28;20048;-48
2021/09/28 05:25:04;;;;;;;10.02;6.68;;;23.60;99.90;;;;;;5077154;28;20129;-48
2021/09/28 05:27:31;;;;;;;19.08;8.38;;;23.60;99.90;;;;;;5082390;28;20074;-69
2021/09/28 05:29:59;;;;;;;10.15;6.97;;;23.60;99.90;;;;;;5094335;28;20059;-48
2021/09/28 05:32:27;;;;;;;13.57;6.88;;;23.60;99.90;;;;;;5093091;28;20048;-51
2021/09/28 05:34:54;;;;;;;15.48;6.95;;;23.60;99.90;;;;;;5088114;28;20040;-48
2021/09/28 05:37:22;;;;;;;9.48;6.60;;;23.70;99.90;;;;;;5076506;28;20409;-51
2021/09/28 05:39:50;;;;;;;9.55;6.68;;;23.70;99.90;;;;;;5087073;28;20044;-49
2021/09/28 05:42:18;;;;;;;8.88;5.40;;;23.70;99.90;;;;;;5056025;28;20139;-49
2021/09/28 05:44:46;;;;;;;15.57;6.38;;;23.70;99.90;;;;;;5053015;28;20052;-53
2021/09/28 05:47:13;;;;;;;8.98;5.78;;;23.70;99.90;;;;;;5052967;28;20127;-48
2021/09/28 05:49:41;;;;;;;9.48;5.90;;;23.70;99.90;;;;;;5052592;28;20085;-51
2021/09/28 05:52:12;;;;;;;9.70;5.88;;;23.70;99.90;;;;;;5052637;28;20064;-50
2021/09/28 05:54:49;;;;;;;8.60;6.40;;;23.70;99.90;;;;;;5036159;28;20045;-48
2021/09/28 05:57:19;;;;;;;10.95;5.97;;;23.70;99.90;;;;;;5052099;28;20052;-49
2021/09/28 05:59:47;;;;;;;10.02;6.18;;;23.80;99.90;;;;;;5079150;28;20045;-50
2021/09/28 06:02:17;;;;;;;9.57;5.78;;;23.70;99.90;;;;;;5062257;28;20498;-48
2021/09/28 06:04:46;;;;;;;12.48;6.03;;;23.70;99.90;;;;;;5078181;28;20036;-49
2021/09/28 06:07:17;;;;;;;11.07;5.88;;;23.80;99.90;;;;;;5077019;28;20098;-50
2021/09/28 06:09:45;;;;;;;11.13;5.70;;;23.80;99.90;;;;;;5071970;28;20056;-49
2021/09/28 06:12:12;;;;;;;11.35;7.00;;;23.80;99.90;;;;;;5093468;28;20510;-48
2021/09/28 06:14:41;;;;;;;9.05;6.43;;;23.80;99.90;;;;;;5092711;28;20101;-49
2021/09/28 06:17:09;;;;;;;7.45;5.47;;;23.90;99.90;;;;;;5092548;28;20040;-50
2021/09/28 06:19:37;;;;;;;10.50;5.63;;;23.90;99.90;;;;;;5092237;28;20452;-51
2021/09/28 06:22:06;;;;;;;10.68;5.38;;;23.90;99.90;;;;;;5063086;28;20136;-53
2021/09/28 06:24:34;;;;;;;8.40;5.00;;;23.80;99.90;;;;;;5048972;28;20131;-51
2021/09/28 06:27:04;;;;;;;8.60;4.60;;;23.80;99.90;;;;;;5086294;28;20045;-51
2021/09/28 06:29:32;;;;;;;9.05;5.28;;;23.80;99.90;;;;;;5071829;28;20044;-69
2021/09/28 06:32:00;;;;;;;7.32;5.30;;;23.90;99.90;;;;;;5073823;28;20053;-47
2021/09/28 06:34:28;;;;;;;8.73;5.28;;;23.80;99.90;;;;;;5073547;28;20040;-49
2021/09/28 06:36:56;;;;;;;7.47;4.95;;;23.80;99.90;;;;;;5082380;28;20052;-49
2021/09/28 06:39:24;;;;;;;9.68;5.10;;;23.80;99.90;;;;;;5086907;28;20584;-47
2021/09/28 06:41:51;;;;;;;10.73;4.72;;;23.80;99.90;;;;;;5087573;28;20040;-49
2021/09/28 06:44:19;;;;;;;7.93;4.97;;;23.80;99.90;;;;;;5064362;28;20521;-51
2021/09/28 06:46:46;;;;;;;10.05;5.43;;;23.80;99.90;;;;;;5051752;28;20491;-48
2021/09/28 06:49:14;;;;;;;7.15;5.10;;;23.80;99.90;;;;;;5051883;28;20059;-48
2021/09/28 06:51:42;;;;;;;6.40;5.18;;;23.80;99.90;;;;;;5072894;28;20048;-51
2021/09/28 06:54:09;;;;;;;8.35;4.93;;;23.80;99.90;;;;;;5074772;28;20110;-57
2021/09/28 06:56:37;;;;;;;6.13;4.68;;;23.80;99.90;;;;;;5086547;28;20394;-48
2021/09/28 06:59:08;;;;;;;8.20;4.35;;;23.80;99.90;;;;;;5092234;28;20038;-52
2021/09/28 07:01:36;;;;;;;5.93;4.68;;;23.70;99.90;;;;;;5060396;28;20568;-55
2021/09/28 07:04:04;;;;;;;6.68;3.97;;;23.80;99.90;;;;;;5075637;28;20044;-51
2021/09/28 07:06:32;;;;;;;6.82;4.90;;;23.80;99.90;;;;;;5055275;28;20040;-48
2021/09/28 07:09:01;;;;;;;6.63;5.28;;;23.90;99.90;;;;;;5082770;28;20048;-50
2021/09/28 07:11:28;;;;;;;8.10;4.53;;;23.90;99.90;;;;;;5050599;28;20044;-47
2021/09/28 07:13:56;;;;;;;5.60;4.03;;;23.90;99.90;;;;;;5072132;28;20044;-48
2021/09/28 07:16:24;;;;;;;9.75;5.43;;;23.90;99.90;;;;;;5071335;28;20055;-50
2021/09/28 07:18:52;;;;;;;6.63;4.82;;;23.90;99.90;;;;;;5071401;28;20040;-52
2021/09/28 07:21:20;;;;;;;7.78;4.55;;;23.90;99.90;;;;;;5075134;28;20477;-48
2021/09/28 07:23:48;;;;;;;7.93;5.45;;;23.90;99.90;;;;;;5075234;28;20127;-49
2021/09/28 07:26:15;;;;;;;5.85;4.32;;;23.90;99.90;;;;;;5091301;28;20079;-48
2021/09/28 07:28:44;;;;;;;7.93;4.80;;;23.90;99.90;;;;;;5092763;28;20452;-52
2021/09/28 07:31:12;;;;;;;10.65;4.68;;;23.90;99.90;;;;;;5088152;28;20040;-48
2021/09/28 07:33:39;;;;;;;8.90;4.97;;;23.90;99.90;;;;;;5080928;28;20135;-48
2021/09/28 07:36:09;;;;;;;6.25;4.03;;;23.90;99.90;;;;;;5060769;28;20040;-51
2021/09/28 07:38:40;;;;;;;7.60;4.22;;;24.00;99.90;;;;;;5071726;28;20076;-51
2021/09/28 07:41:08;;;;;;;4.25;3.20;;;24.10;99.90;;;;;;5060234;28;20486;-53
2021/09/28 07:43:35;;;;;;;5.45;3.17;;;24.10;99.90;;;;;;5078689;28;20067;-50
2021/09/28 07:46:03;;;;;;;5.82;3.60;;;24.20;99.90;;;;;;5075349;28;20052;-49
2021/09/28 07:48:32;;;;;;;4.15;3.03;;;24.20;99.90;;;;;;5078065;28;20047;-50
2021/09/28 07:51:00;;;;;;;4.38;3.22;;;24.30;99.90;;;;;;5092373;28;20132;-50
2021/09/28 07:53:27;;;;;;;4.35;2.90;;;24.40;99.90;;;;;;5086376;28;20137;-55
2021/09/28 07:55:55;;;;;;;4.80;3.05;;;24.40;99.90;;;;;;5087536;28;20044;-50
2021/09/28 07:58:23;;;;;;;4.57;2.95;;;24.50;99.90;;;;;;5067223;28;20056;-48
2021/09/28 08:00:53;;;;;;;5.68;3.10;;;24.60;99.90;;;;;;5086223;28;20394;-56
2021/09/28 08:03:24;;;;;;;6.28;3.28;;;24.70;99.90;;;;;;5045370;28;20447;-54
2021/09/28 08:05:56;;;;;;;8.00;3.58;;;24.80;99.90;;;;;;5078268;28;20452;-61
2021/09/28 08:08:25;;;;;;;5.97;3.85;;;25.00;99.90;;;;;;5078648;28;20094;-55
2021/09/28 08:10:55;;;;;;;4.50;3.60;;;25.10;99.90;;;;;;5073011;28;20514;-65
2021/09/28 08:13:25;;;;;;;7.35;4.13;;;25.30;99.90;;;;;;5069271;28;20075;-53
2021/09/28 08:15:55;;;;;;;7.43;4.50;;;25.40;99.90;;;;;;5075386;28;20395;-55
2021/09/28 08:18:23;;;;;;;6.07;3.63;;;25.40;99.90;;;;;;5063726;28;20045;-59
2021/09/28 08:20:51;;;;;;;6.20;3.88;;;25.40;99.90;;;;;;5094468;28;20482;-54
2021/09/28 08:23:20;;;;;;;7.53;4.40;;;25.50;99.90;;;;;;5064469;28;20395;-53
2021/09/28 08:25:59;;;;;;;9.32;3.67;;;25.50;99.90;;;;;;5069525;28;20067;-53
2021/09/28 08:31:13;;;;;;;;;;;25.40;99.90;;;;;;5058978;28;20071;-55
2021/09/28 08:33:40;;;;;;;9.48;3.88;;;25.50;99.90;;;;;;5069650;28;20015;-54
2021/09/28 08:36:08;;;;;;;6.43;3.53;;;25.50;99.80;;;;;;5089104;28;20052;-55
2021/09/28 08:38:36;;;;;;;7.72;4.95;;;25.70;99.00;;;;;;5075162;28;20113;-53
2021/09/28 08:41:03;;;;;;;10.13;3.20;;;25.90;98.70;;;;;;5075802;28;20051;-54
2021/09/28 08:43:31;;;;;;;6.00;3.45;;;26.20;98.30;;;;;;5074970;28;20064;-47
2021/09/28 08:45:59;;;;;;;6.00;2.80;;;26.60;97.70;;;;;;5085756;28;20048;-47
2021/09/28 08:48:27;;;;;;;7.00;3.33;;;26.80;96.70;;;;;;5074645;28;20437;-47
2021/09/28 08:50:55;;;;;;;6.07;3.13;;;27.00;95.80;;;;;;5077103;28;20032;-48
2021/09/28 08:53:23;;;;;;;7.07;3.05;;;27.20;95.50;;;;;;5082962;28;20545;-48
2021/09/28 08:55:50;;;;;;;7.95;3.65;;;27.40;95.70;;;;;;5087884;28;20048;-50
2021/09/28 08:58:20;;;;;;;4.65;3.13;;;27.50;95.50;;;;;;5083865;28;20097;-47
2021/09/28 09:00:49;;;;;;;6.57;3.20;;;27.70;95.50;;;;;;5065210;28;20573;-48
2021/09/28 09:03:27;;;;;;;5.95;3.40;;;27.70;95.50;;;;;;5037822;28;20498;-48
2021/09/28 09:05:58;;;;;;;8.55;3.70;;;27.70;95.20;;;;;;5092062;28;20493;-48
2021/09/28 09:08:31;;;;;;;8.70;3.72;;;27.70;94.80;;;;;;5094559;28;20551;-48
2021/09/28 09:11:01;;;;;;;8.48;3.17;;;27.70;94.60;;;;;;5085477;28;20098;-47
2021/09/28 09:13:56;;;;;;;12.30;4.25;;;27.80;94.90;;;;;;5083657;28;20051;-48
2021/09/28 09:16:35;;;;;;;9.93;4.55;;;27.60;94.80;;;;;;5051569;28;20127;-48
2021/09/28 09:19:17;;;;;;;7.68;3.92;;;27.50;95.00;;;;;;5060488;28;20045;-48
2021/09/28 09:21:50;;;;;;;6.95;3.90;;;27.30;95.10;;;;;;5074242;28;20420;-47
2021/09/28 09:24:50;;;;;;;16.60;5.03;;;27.20;94.90;;;;;;5059990;28;20045;-47
2021/09/28 09:27:32;;;;;;;10.00;5.20;;;26.90;95.10;;;;;;5064803;28;20048;-47
2021/09/28 09:30:19;;;;;;;8.18;4.60;;;26.80;95.70;;;;;;5078146;28;20048;-48
2021/09/28 09:32:57;;;;;;;14.68;5.93;;;26.70;96.30;;;;;;5075139;28;20056;-48
2021/09/28 09:35:28;;;;;;;8.88;4.72;;;26.60;96.60;;;;;;5066097;28;20051;-47
2021/09/28 09:38:15;;;;;;;9.18;4.93;;;26.50;96.30;;;;;;5073928;28;20048;-47
2021/09/28 09:40:46;;;;;;;10.90;4.93;;;26.60;96.00;;;;;;5077998;28;20047;-49
2021/09/28 09:43:18;;;;;;;11.65;4.55;;;26.60;96.10;;;;;;5087278;28;20079;-48
2021/09/28 09:45:46;;;;;;;11.30;4.97;;;26.70;96.20;;;;;;5082044;28;20115;-48
2021/09/28 09:52:57;;;;;;;10.45;4.55;;;27.00;96.20;;;;;;5083342;28;20539;-48
2021/09/28 09:55:30;;;;;;;11.00;4.57;;;27.30;94.90;;;;;;5090505;28;20040;-49
2021/09/28 09:57:59;;;;;;;12.40;5.55;;;27.50;94.50;;;;;;5076666;28;20053;-48
2021/09/28 10:00:28;;;;;;;11.68;5.60;;;27.70;95.00;;;;;;5076358;28;20387;-48
2021/09/28 10:02:56;;;;;;;13.27;6.60;;;27.90;94.90;;;;;;5093402;28;20048;-48
2021/09/28 10:05:25;;;;;;;11.02;6.80;;;27.90;94.30;;;;;;5071249;28;20066;-48
2021/09/28 10:07:54;;;;;;;9.75;5.95;;;27.90;94.20;;;;;;5064154;28;20044;-48
2021/09/28 10:10:22;;;;;;;15.60;7.18;;;27.90;94.90;;;;;;5078844;28;20048;-49
2021/09/28 10:12:49;;;;;;;12.63;7.70;;;27.90;94.90;;;;;;5081218;28;20505;-49
2021/09/28 10:15:18;;;;;;;12.98;7.07;;;27.80;95.00;;;;;;5087392;28;20060;-47
2021/09/28 10:17:47;;;;;;;12.02;6.40;;;27.90;95.10;;;;;;5071182;28;20135;-50
2021/09/28 10:20:21;;;;;;;14.80;7.65;;;27.80;94.40;;;;;;5071426;28;20074;-48
2021/09/28 10:22:57;;;;;;;20.20;8.20;;;27.80;93.80;;;;;;5089366;28;20037;-48
2021/09/28 10:25:35;;;;;;;15.18;8.60;;;27.60;94.40;;;;;;5074699;28;20036;-48
2021/09/28 10:28:03;;;;;;;15.13;8.07;;;27.50;94.90;;;;;;5078299;28;20061;-49
2021/09/28 10:30:31;;;;;;;15.10;7.20;;;27.40;95.00;;;;;;5053184;28;20112;-48
2021/09/28 10:33:04;;;;;;;13.63;7.30;;;27.20;95.00;;;;;;5062095;28;20368;-49
2021/09/28 10:35:34;;;;;;;15.23;7.97;;;27.20;95.00;;;;;;5081653;28;20521;-47
2021/09/28 10:38:06;;;;;;;13.10;7.70;;;27.20;95.30;;;;;;5080866;28;20052;-48
2021/09/28 10:40:34;;;;;;;13.82;8.15;;;27.20;95.40;;;;;;5062833;28;20041;-48
2021/09/28 10:43:06;;;;;;;13.43;9.32;;;27.10;95.30;;;;;;5070057;28;20498;-48
2021/09/28 10:45:36;;;;;;;19.85;8.13;;;27.10;95.50;;;;;;5085444;28;20089;-48
2021/09/28 10:48:11;;;;;;;16.40;8.65;;;26.80;95.00;;;;;;5053687;28;20495;-46
2021/09/28 10:50:41;;;;;;;11.88;8.60;;;26.80;95.10;;;;;;5070860;28;20047;-49
2021/09/28 10:53:29;;;;;;;17.63;8.77;;;26.70;95.30;;;;;;5076658;28;20048;-46
2021/09/28 10:56:00;;;;;;;16.65;8.18;;;26.60;94.90;;;;;;5040305;28;20052;-48
2021/09/28 10:58:29;;;;;;;18.20;8.63;;;26.80;95.40;;;;;;5079147;28;20047;-47
2021/09/28 11:00:56;;;;;;;18.65;9.77;;;26.90;95.30;;;;;;5051361;28;20067;-48
2021/09/28 11:03:56;;;;;;;21.52;9.00;;;27.00;95.40;;;;;;5062595;28;20406;-50
2021/09/28 11:06:53;;;;;;;19.20;8.93;;;27.20;94.80;;;;;;5073584;28;20559;-47
2021/09/28 11:09:22;;;;;;;20.88;8.60;;;27.40;94.50;;;;;;5074358;28;20052;-48
2021/09/28 11:11:54;;;;;;;15.40;7.80;;;27.60;93.60;;;;;;5071679;28;20032;-48
2021/09/28 11:14:23;;;;;;;13.75;7.72;;;27.80;93.50;;;;;;5044612;28;20056;-55
2021/09/28 11:16:56;;;;;;;17.70;7.97;;;27.80;93.10;;;;;;5069406;28;20445;-46
2021/09/28 11:19:34;;;;;;;13.65;8.55;;;27.70;93.30;;;;;;5067668;28;20041;-51
2021/09/28 11:22:04;;;;;;;25.83;9.27;;;27.80;93.40;;;;;;5079301;28;20044;-55
2021/09/28 11:24:32;;;;;;;11.13;8.15;;;27.90;93.00;;;;;;5067117;28;20110;-47
2021/09/28 11:27:10;;;;;;;12.88;6.70;;;28.00;92.60;;;;;;5081977;28;20056;-60
2021/09/28 11:29:40;;;;;;;18.95;7.82;;;27.90;92.00;;;;;;5066369;28;20052;-48
2021/09/28 11:32:09;;;;;;;16.67;8.00;;;28.00;92.60;;;;;;5047569;28;20089;-47
2021/09/28 11:34:40;;;;;;;11.73;7.32;;;28.10;92.80;;;;;;5079401;28;20049;-48
2021/09/28 11:37:17;;;;;;;13.88;7.55;;;28.10;92.20;;;;;;5032355;28;20051;-48
2021/09/28 11:39:47;;;;;;;20.25;9.52;;;28.20;92.40;;;;;;5047487;28;20131;-46
2021/09/28 11:42:15;;;;;;;14.20;7.28;;;28.20;92.70;;;;;;5054797;28;20074;-54
2021/09/28 11:44:47;;;;;;;12.68;7.10;;;28.10;93.20;;;;;;5060543;28;20049;-46
2021/09/28 11:47:21;;;;;;;11.68;6.90;;;27.90;92.70;;;;;;5071288;28;20119;-52
2021/09/28 11:49:54;;;;;;;11.48;8.15;;;27.90;92.70;;;;;;5048977;28;20149;-49
2021/09/28 11:52:23;;;;;;;16.33;8.35;;;27.80;93.40;;;;;;5076445;28;20052;-49
2021/09/28 11:54:52;;;;;;;16.67;7.10;;;27.80;93.20;;;;;;5072088;28;20489;-50
2021/09/28 11:57:22;;;;;;;11.90;7.35;;;27.70;93.30;;;;;;5077918;28;20106;-49
2021/09/28 11:59:52;;;;;;;12.95;6.47;;;27.60;93.00;;;;;;5048792;28;20040;-47
2021/09/28 12:02:22;;;;;;;10.35;6.88;;;27.60;93.50;;;;;;5070746;28;20051;-50
2021/09/28 12:10:19;;;;;;;12.00;6.10;;;27.40;93.70;;;;;;5068732;28;20044;-54
2021/09/28 12:12:47;;;;;;;14.60;6.20;;;27.40;93.90;;;;;;5092155;28;20046;-59
2021/09/28 12:19:35;;;;;;;12.23;6.40;;;27.50;93.50;;;;;;5066682;28;20509;-53
2021/09/28 12:22:03;;;;;;;13.80;6.32;;;27.40;94.20;;;;;;5059672;28;20101;-50
2021/09/28 12:24:53;;;;;;;10.98;5.45;;;27.40;94.30;;;;;;5082788;28;20040;-53
2021/09/28 12:27:23;;;;;;;10.57;6.22;;;27.50;94.20;;;;;;5075378;28;20513;-52
2021/09/28 12:29:53;;;;;;;12.27;5.65;;;27.50;94.10;;;;;;5065542;28;20218;-49
2021/09/28 12:32:27;;;;;;;9.60;5.95;;;27.60;94.00;;;;;;5067128;28;20109;-50
2021/09/28 12:34:58;;;;;;;13.35;6.03;;;27.60;93.70;;;;;;5072494;28;20090;-53
2021/09/28 12:37:28;;;;;;;17.27;5.97;;;27.60;93.30;;;;;;5067895;28;20040;-52
2021/09/28 12:40:08;;;;;;;11.43;5.57;;;27.50;92.90;;;;;;5067733;28;20041;-53
2021/09/28 12:42:39;;;;;;;13.65;5.93;;;27.40;93.20;;;;;;5063371;28;20040;-48
2021/09/28 12:45:13;;;;;;;12.45;5.68;;;27.40;93.30;;;;;;5077174;28;20499;-47
2021/09/28 12:47:45;;;;;;;11.75;6.95;;;27.40;93.40;;;;;;5094214;28;20370;-48
2021/09/28 12:50:24;;;;;;;11.40;5.40;;;27.30;93.70;;;;;;5058866;28;20082;-52
2021/09/28 12:53:00;;;;;;;9.25;5.53;;;27.20;92.70;;;;;;5093263;28;20509;-54
2021/09/28 12:55:30;;;;;;;9.32;5.07;;;27.00;93.30;;;;;;5093299;28;20074;-48
2021/09/28 12:57:58;;;;;;;9.15;5.75;;;27.00;93.60;;;;;;5075213;28;20047;-49
2021/09/28 13:00:25;;;;;;;10.93;5.97;;;27.10;93.80;;;;;;5093339;28;20036;-50
2021/09/28 13:02:55;;;;;;;10.77;5.43;;;27.10;94.00;;;;;;5091356;28;20129;-50
2021/09/28 13:05:24;;;;;;;6.63;4.88;;;27.20;94.00;;;;;;5091327;28;20104;-52
2021/09/28 13:07:53;;;;;;;10.18;6.10;;;27.20;93.70;;;;;;5093444;28;20472;-48
2021/09/28 13:10:22;;;;;;;9.15;5.70;;;27.10;93.80;;;;;;5075445;28;20056;-48